createdAt,value
2017-05-23T00:00:19.455Z,8.33
2017-05-23T00:02:47.738Z,8.62
2017-05-23T00:05:16.311Z,9.02
2017-05-23T00:07:44.595Z,8.30
2017-05-23T00:10:12.875Z,7.96
2017-05-23T00:12:41.474Z,8.10
2017-05-23T00:15:09.760Z,8.07
2017-05-23T00:17:38.143Z,8.38
2017-05-23T00:20:06.818Z,7.93
2017-05-23T00:22:35.106Z,7.90
2017-05-23T00:25:03.391Z,8.78
2017-05-23T00:27:32.012Z,8.72
2017-05-23T00:30:00.296Z,8.74
2017-05-23T00:32:28.599Z,8.96
2017-05-23T00:34:57.214Z,9.24
2017-05-23T00:37:25.539Z,9.40
2017-05-23T00:39:53.836Z,9.50
2017-05-23T00:42:22.964Z,9.37
2017-05-23T00:44:51.252Z,10.20
2017-05-23T00:47:19.547Z,9.10
2017-05-23T00:49:48.120Z,9.16
2017-05-23T00:52:16.429Z,9.00
2017-05-23T00:54:44.716Z,9.23
2017-05-23T00:57:13.304Z,9.83
2017-05-23T00:59:42.017Z,9.52
2017-05-23T01:02:10.310Z,9.30
2017-05-23T01:04:38.997Z,9.58
2017-05-23T01:07:07.292Z,10.10
2017-05-23T01:09:35.599Z,9.63
2017-05-23T01:12:04.288Z,10.27
2017-05-23T01:14:32.576Z,9.22
2017-05-23T01:17:00.887Z,9.34
2017-05-23T01:19:29.571Z,9.03
2017-05-23T01:21:57.851Z,9.82
2017-05-23T01:24:26.146Z,9.68
2017-05-23T01:26:54.778Z,10.00
2017-05-23T01:29:23.064Z,9.95
2017-05-23T01:31:51.375Z,9.80
2017-05-23T01:34:20.055Z,10.38
2017-05-23T01:36:48.351Z,10.48
2017-05-23T01:39:16.646Z,11.32
2017-05-23T01:41:45.348Z,10.36
2017-05-23T01:44:13.635Z,10.97
2017-05-23T01:46:41.920Z,10.37
2017-05-23T01:49:10.540Z,10.60
2017-05-23T01:51:38.828Z,10.40
2017-05-23T01:54:07.141Z,11.02
2017-05-23T01:56:35.831Z,10.20
2017-05-23T01:59:04.132Z,10.76
2017-05-23T02:01:32.424Z,11.04
2017-05-23T02:04:01.023Z,10.12
2017-05-23T02:06:29.321Z,10.92
2017-05-23T02:08:57.624Z,10.90
2017-05-23T02:11:26.241Z,10.48
2017-05-23T02:13:54.532Z,10.05
2017-05-23T02:16:22.836Z,10.70
2017-05-23T02:18:51.513Z,10.58
2017-05-23T02:21:19.796Z,9.90
2017-05-23T02:23:48.089Z,10.56
2017-05-23T02:26:16.803Z,10.34
2017-05-23T02:28:45.119Z,10.88
2017-05-23T02:31:13.415Z,11.22
2017-05-23T02:33:42.097Z,11.70
2017-05-23T02:36:10.388Z,11.62
2017-05-23T02:38:38.680Z,11.62
2017-05-23T02:41:07.390Z,11.24
2017-05-23T02:43:35.703Z,10.80
2017-05-23T02:46:04.009Z,11.60
2017-05-23T02:48:32.624Z,10.82
2017-05-23T02:51:00.917Z,12.47
2017-05-23T02:53:29.212Z,11.30
2017-05-23T02:55:57.897Z,11.32
2017-05-23T02:58:26.236Z,11.16
2017-05-23T03:00:54.548Z,12.90
2017-05-23T03:03:23.273Z,12.50
2017-05-23T03:05:51.640Z,13.43
2017-05-23T03:08:19.948Z,13.32
2017-05-23T03:10:48.567Z,12.70
2017-05-23T03:13:16.863Z,12.60
2017-05-23T03:15:45.148Z,12.20
2017-05-23T03:18:13.767Z,12.64
2017-05-23T03:20:42.078Z,12.80
2017-05-23T03:23:10.378Z,13.07
2017-05-23T03:25:38.972Z,13.47
2017-05-23T03:28:07.280Z,14.30
2017-05-23T03:30:35.589Z,13.10
2017-05-23T03:33:04.288Z,13.08
2017-05-23T03:35:32.686Z,14.40
2017-05-23T03:38:00.996Z,14.50
2017-05-23T03:40:29.596Z,14.10
2017-05-23T03:42:58.002Z,13.97
2017-05-23T03:45:26.316Z,13.58
2017-05-23T03:47:54.933Z,13.90
2017-05-23T03:50:23.235Z,13.26
2017-05-23T03:52:51.533Z,13.94
2017-05-23T03:55:20.156Z,12.38
2017-05-23T03:57:48.459Z,13.47
2017-05-23T04:00:16.751Z,13.97
2017-05-23T04:02:45.331Z,12.60
2017-05-23T04:05:13.652Z,12.78
2017-05-23T04:07:41.944Z,13.07
2017-05-23T04:10:10.616Z,12.68
2017-05-23T04:12:39.038Z,12.64
2017-05-23T04:15:07.348Z,13.45
2017-05-23T04:17:36.026Z,12.78
2017-05-23T04:20:04.332Z,19.43
2017-05-23T04:22:32.630Z,16.20
2017-05-23T04:25:01.292Z,14.90
2017-05-23T04:27:29.580Z,13.40
2017-05-23T04:29:57.895Z,14.18
2017-05-23T04:32:26.588Z,13.40
2017-05-23T04:34:54.924Z,13.30
2017-05-23T04:37:23.252Z,12.77
2017-05-23T04:39:51.968Z,13.20
2017-05-23T04:42:20.256Z,13.42
2017-05-23T04:44:48.545Z,12.65
2017-05-23T04:47:17.113Z,13.50
2017-05-23T04:49:45.417Z,13.03
2017-05-23T04:52:13.707Z,12.57
2017-05-23T04:54:43.612Z,14.67
2017-05-23T04:57:12.086Z,13.22
2017-05-23T04:59:40.380Z,12.82
2017-05-23T05:02:09.001Z,16.70
2017-05-23T05:04:37.305Z,12.20
2017-05-23T05:07:05.599Z,11.65
2017-05-23T05:09:34.302Z,11.05
2017-05-23T05:12:02.596Z,11.00
2017-05-23T05:14:30.897Z,9.93
2017-05-23T05:16:59.496Z,10.38
2017-05-23T05:19:27.793Z,10.30
2017-05-23T05:21:56.101Z,10.86
2017-05-23T05:24:24.720Z,11.58
2017-05-23T05:26:53.137Z,12.70
2017-05-23T05:29:21.440Z,11.25
2017-05-23T05:31:50.066Z,10.58
2017-05-23T05:34:18.354Z,10.32
2017-05-23T05:36:46.649Z,11.12
2017-05-23T05:39:15.361Z,14.08
2017-05-23T05:41:43.664Z,15.82
2017-05-23T05:44:11.952Z,12.60
2017-05-23T05:46:40.564Z,11.67
2017-05-23T05:49:08.868Z,11.72
2017-05-23T05:51:37.157Z,10.78
2017-05-23T05:54:05.846Z,9.85
2017-05-23T05:56:34.148Z,10.07
2017-05-23T05:59:02.449Z,10.82
2017-05-23T06:01:31.149Z,9.50
2017-05-23T06:03:59.449Z,9.88
2017-05-23T06:06:27.754Z,9.56
2017-05-23T06:08:56.442Z,9.72
2017-05-23T06:11:24.745Z,9.08
2017-05-23T06:14:14.163Z,9.28
2017-05-23T06:16:42.463Z,9.42
2017-05-23T06:19:10.788Z,9.65
2017-05-23T06:21:39.384Z,9.30
2017-05-23T06:24:07.663Z,8.92
2017-05-23T06:26:35.950Z,8.48
2017-05-23T06:29:04.633Z,9.05
2017-05-23T06:31:32.926Z,10.30
2017-05-23T06:34:01.220Z,17.30
2017-05-23T06:36:29.839Z,10.74
2017-05-23T06:38:58.137Z,8.47
2017-05-23T06:41:26.426Z,7.32
2017-05-23T06:43:55.030Z,7.12
2017-05-23T06:46:23.358Z,7.70
2017-05-23T06:48:51.670Z,6.63
2017-05-23T06:51:20.315Z,6.60
2017-05-23T06:53:48.600Z,6.45
2017-05-23T06:56:16.897Z,5.95
2017-05-23T06:58:45.492Z,5.95
2017-05-23T07:01:13.784Z,5.88
2017-05-23T07:03:42.077Z,5.68
2017-05-23T07:06:10.666Z,5.38
2017-05-23T07:08:38.956Z,5.06
2017-05-23T07:11:07.238Z,5.30
2017-05-23T07:13:35.878Z,5.08
2017-05-23T07:16:04.165Z,8.33
2017-05-23T07:18:32.507Z,8.48
2017-05-23T07:21:01.196Z,5.42
2017-05-23T07:23:29.812Z,4.80
2017-05-23T07:25:58.103Z,4.98
2017-05-23T07:28:26.772Z,4.70
2017-05-23T07:30:55.051Z,4.80
2017-05-23T07:33:23.400Z,4.70
2017-05-23T07:35:52.092Z,5.05
2017-05-23T07:38:20.384Z,4.65
2017-05-23T07:40:48.665Z,4.73
2017-05-23T07:43:17.370Z,5.98
2017-05-23T07:45:45.668Z,6.00
2017-05-23T07:48:13.960Z,5.12
2017-05-23T07:50:42.560Z,4.40
2017-05-23T07:53:10.860Z,5.43
2017-05-23T07:55:39.156Z,5.03
2017-05-23T07:58:07.744Z,4.50
2017-05-23T08:00:36.105Z,3.93
2017-05-23T08:03:04.391Z,4.85
2017-05-23T08:05:33.040Z,4.00
2017-05-23T08:08:01.325Z,4.17
2017-05-23T08:10:29.611Z,4.10
2017-05-23T08:12:58.199Z,4.10
2017-05-23T08:15:26.487Z,4.28
2017-05-23T08:17:54.792Z,3.98
2017-05-23T08:20:23.419Z,4.17
2017-05-23T08:22:51.695Z,4.30
2017-05-23T08:25:19.968Z,4.30
2017-05-23T08:27:48.621Z,4.24
2017-05-23T08:30:16.907Z,3.90
2017-05-23T08:32:45.184Z,4.10
2017-05-23T08:35:13.809Z,7.20
2017-05-23T08:37:42.100Z,5.40
2017-05-23T08:40:10.384Z,4.40
2017-05-23T08:42:39.012Z,4.10
2017-05-23T08:45:07.299Z,4.18
2017-05-23T08:47:35.591Z,4.00
2017-05-23T08:50:04.296Z,3.90
2017-05-23T08:52:33.163Z,3.93
2017-05-23T08:55:02.034Z,4.10
2017-05-23T08:57:31.235Z,4.30
2017-05-23T09:00:00.100Z,4.22
2017-05-23T09:02:28.971Z,4.15
2017-05-23T09:04:58.168Z,3.88
2017-05-23T09:07:27.027Z,3.90
2017-05-23T09:09:55.880Z,4.32
2017-05-23T09:12:25.091Z,4.58
2017-05-23T09:14:53.959Z,4.50
2017-05-23T09:17:22.825Z,4.08
2017-05-23T09:19:51.977Z,4.00
2017-05-23T09:22:20.842Z,4.10
2017-05-23T09:25:06.682Z,4.20
2017-05-23T09:27:41.322Z,4.10
2017-05-23T09:30:10.565Z,4.32
2017-05-23T09:32:39.435Z,4.07
2017-05-23T09:35:08.316Z,4.03
2017-05-23T09:37:37.503Z,4.15
2017-05-23T09:40:06.373Z,4.42
2017-05-23T09:42:35.246Z,4.20
2017-05-23T09:45:04.438Z,4.22
2017-05-23T09:47:33.308Z,4.83
2017-05-23T09:50:02.175Z,8.73
2017-05-23T09:52:31.363Z,4.25
2017-05-23T09:55:00.232Z,5.10
2017-05-23T09:57:29.097Z,4.95
2017-05-23T09:59:58.382Z,7.33
2017-05-23T10:02:27.247Z,5.05
2017-05-23T10:04:56.115Z,5.20
2017-05-23T10:07:25.339Z,4.64
2017-05-23T10:09:54.216Z,4.60
2017-05-23T10:12:23.095Z,4.40
2017-05-23T10:14:52.255Z,4.55
2017-05-23T10:17:21.111Z,4.57
2017-05-23T10:19:49.987Z,4.40
2017-05-23T10:22:19.183Z,4.58
2017-05-23T10:24:48.063Z,4.60
2017-05-23T10:27:16.935Z,5.10
2017-05-23T10:29:46.126Z,4.50
2017-05-23T10:32:15.007Z,4.37
2017-05-23T10:34:43.879Z,4.68
2017-05-23T10:37:13.074Z,4.62
2017-05-23T10:39:41.951Z,4.65
2017-05-23T10:42:10.815Z,4.80
2017-05-23T10:44:40.093Z,6.73
2017-05-23T10:47:09.071Z,5.20
2017-05-23T10:49:37.947Z,4.30
2017-05-23T10:52:07.126Z,4.80
2017-05-23T10:54:35.983Z,4.90
2017-05-23T10:57:04.849Z,4.43
2017-05-23T10:59:34.943Z,4.84
2017-05-23T11:02:03.815Z,4.55
2017-05-23T11:04:32.671Z,4.50
2017-05-23T11:07:01.915Z,4.60
2017-05-23T11:09:30.781Z,4.50
2017-05-23T11:11:59.656Z,4.67
2017-05-23T11:14:28.843Z,4.42
2017-05-23T11:16:57.706Z,4.60
2017-05-23T11:19:26.571Z,4.63
2017-05-23T11:21:55.767Z,4.63
2017-05-23T11:24:24.638Z,4.35
2017-05-23T11:26:53.523Z,4.52
2017-05-23T11:29:22.703Z,4.67
2017-05-23T11:31:51.574Z,4.62
2017-05-23T11:34:20.488Z,6.48
2017-05-23T11:36:49.732Z,4.75
2017-05-23T11:39:18.600Z,4.70
2017-05-23T11:41:47.452Z,4.85
2017-05-23T11:44:16.592Z,4.80
2017-05-23T11:46:45.466Z,5.00
2017-05-23T11:49:14.325Z,5.20
2017-05-23T11:51:43.487Z,5.13
2017-05-23T11:54:12.351Z,4.70
2017-05-23T11:56:41.231Z,5.00
2017-05-23T11:59:10.431Z,5.80
2017-05-23T12:01:39.297Z,7.28
2017-05-23T12:04:08.182Z,5.20
2017-05-23T12:06:37.365Z,5.58
2017-05-23T12:09:06.242Z,8.12
2017-05-23T12:11:35.107Z,7.30
2017-05-23T12:14:04.291Z,5.77
2017-05-23T12:16:33.148Z,5.30
2017-05-23T12:19:02.024Z,5.22
2017-05-23T12:21:31.221Z,5.52
2017-05-23T12:24:00.085Z,5.02
2017-05-23T12:26:28.938Z,6.00
2017-05-23T12:28:58.119Z,7.78
2017-05-23T12:31:26.991Z,5.30
2017-05-23T12:33:55.849Z,4.90
2017-05-23T12:36:25.085Z,5.32
2017-05-23T12:38:53.949Z,5.07
2017-05-23T12:41:22.815Z,5.40
2017-05-23T12:43:52.028Z,5.50
2017-05-23T12:46:20.889Z,5.20
2017-05-23T12:48:49.752Z,5.63
2017-05-23T12:51:18.947Z,5.32
2017-05-23T12:53:47.810Z,5.00
2017-05-23T12:56:16.667Z,4.90
2017-05-23T12:58:45.872Z,5.07
2017-05-23T13:01:14.743Z,4.87
2017-05-23T13:03:43.625Z,4.90
2017-05-23T13:06:12.823Z,4.67
2017-05-23T13:08:41.687Z,4.80
2017-05-23T13:11:10.594Z,4.70
2017-05-23T13:13:39.852Z,4.57
2017-05-23T13:16:08.727Z,4.70
2017-05-23T13:18:37.687Z,4.80
2017-05-23T13:21:06.879Z,4.66
2017-05-23T13:23:35.760Z,4.82
2017-05-23T13:26:04.612Z,4.50
2017-05-23T13:28:33.803Z,5.00
2017-05-23T13:31:02.667Z,4.60
2017-05-23T13:33:31.655Z,5.02
2017-05-23T13:36:00.860Z,4.80
2017-05-23T13:38:29.723Z,4.50
2017-05-23T13:40:58.596Z,4.50
2017-05-23T13:43:27.776Z,5.00
2017-05-23T13:45:56.643Z,4.80
2017-05-23T13:48:26.358Z,5.10
2017-05-23T13:50:55.628Z,4.87
2017-05-23T13:53:24.496Z,5.10
2017-05-23T13:55:53.377Z,6.62
2017-05-23T13:58:22.578Z,4.00
2017-05-23T14:00:51.451Z,3.80
2017-05-23T14:03:20.328Z,3.60
2017-05-23T14:05:49.608Z,3.80
2017-05-23T14:08:18.491Z,3.60
2017-05-23T14:10:47.359Z,3.70
2017-05-23T14:13:16.564Z,3.60
2017-05-23T14:15:45.479Z,4.02
2017-05-23T14:18:14.361Z,4.42
2017-05-23T14:20:43.569Z,5.48
2017-05-23T14:23:12.451Z,4.37
2017-05-23T14:25:41.326Z,4.05
2017-05-23T14:28:10.505Z,4.00
2017-05-23T14:30:39.405Z,3.72
2017-05-23T14:33:08.678Z,3.98
2017-05-23T14:35:37.935Z,4.25
2017-05-23T14:38:06.840Z,4.10
2017-05-23T14:40:35.755Z,4.00
2017-05-23T14:43:04.973Z,4.12
2017-05-23T14:45:33.848Z,3.98
2017-05-23T14:48:02.753Z,4.30
2017-05-23T14:50:32.173Z,3.82
2017-05-23T14:53:01.057Z,4.07
2017-05-23T14:55:29.922Z,5.05
2017-05-23T14:57:59.167Z,6.62
2017-05-23T15:00:28.080Z,5.77
2017-05-23T15:02:56.965Z,5.28
2017-05-23T15:05:26.184Z,4.98
2017-05-23T15:07:55.056Z,4.53
2017-05-23T15:10:23.989Z,4.72
2017-05-23T15:12:53.185Z,6.50
2017-05-23T15:15:22.051Z,5.32
2017-05-23T15:17:50.919Z,5.00
2017-05-23T15:20:20.431Z,5.27
2017-05-23T15:22:49.289Z,5.66
2017-05-23T15:25:18.184Z,5.32
2017-05-23T15:27:47.368Z,5.66
2017-05-23T15:30:16.298Z,5.22
2017-05-23T15:32:45.162Z,4.98
2017-05-23T15:35:14.320Z,5.17
2017-05-23T15:37:43.188Z,4.70
2017-05-23T15:40:12.057Z,5.50
2017-05-23T15:42:41.259Z,5.53
2017-05-23T15:45:10.212Z,6.47
2017-05-23T15:47:39.084Z,7.07
2017-05-23T15:50:08.289Z,7.80
2017-05-23T15:52:37.155Z,5.55
2017-05-23T15:55:06.039Z,5.63
2017-05-23T15:57:35.205Z,5.37
2017-05-23T16:00:04.072Z,5.50
2017-05-23T16:02:32.940Z,5.88
2017-05-23T16:05:02.144Z,5.60
2017-05-23T16:07:31.112Z,5.70
2017-05-23T16:09:59.979Z,5.82
2017-05-23T16:12:29.182Z,5.52
2017-05-23T16:14:58.052Z,5.88
2017-05-23T16:17:26.916Z,5.70
2017-05-23T16:19:56.201Z,6.12
2017-05-23T16:22:25.071Z,5.68
2017-05-23T16:24:53.944Z,5.80
2017-05-23T16:27:23.136Z,5.95
2017-05-23T16:29:52.003Z,6.23
2017-05-23T16:32:20.874Z,6.24
2017-05-23T16:34:50.096Z,8.40
2017-05-23T16:37:18.963Z,5.80
2017-05-23T16:39:47.850Z,6.10
2017-05-23T16:42:16.999Z,6.78
2017-05-23T16:44:45.912Z,6.00
2017-05-23T16:47:14.773Z,7.22
2017-05-23T16:49:43.942Z,12.03
2017-05-23T16:52:12.908Z,9.18
2017-05-23T16:54:41.786Z,13.42
2017-05-23T16:57:10.999Z,7.80
2017-05-23T16:59:39.869Z,6.98
2017-05-23T17:02:08.899Z,6.90
2017-05-23T17:04:38.107Z,6.52
2017-05-23T17:07:06.975Z,8.10
2017-05-23T17:09:35.860Z,7.95
2017-05-23T17:12:05.055Z,6.33
2017-05-23T17:14:33.941Z,6.32
2017-05-23T17:17:02.811Z,8.20
2017-05-23T17:19:32.243Z,7.30
2017-05-23T17:22:01.114Z,6.52
2017-05-23T17:24:30.004Z,6.80
2017-05-23T17:26:59.166Z,6.82
2017-05-23T17:29:28.040Z,6.10
2017-05-23T17:31:56.913Z,5.90
2017-05-23T17:34:26.060Z,6.00
2017-05-23T17:36:54.943Z,6.60
2017-05-23T17:39:23.806Z,6.50
2017-05-23T17:41:52.962Z,5.95
2017-05-23T17:44:21.827Z,6.30
2017-05-23T17:46:50.683Z,5.93
2017-05-23T17:49:19.901Z,6.78
2017-05-23T17:51:48.767Z,6.50
2017-05-23T17:56:53.317Z,6.50
2017-05-23T17:59:22.194Z,6.55
2017-05-23T18:01:51.067Z,6.65
2017-05-23T18:04:20.220Z,7.73
2017-05-23T18:06:49.075Z,6.98
2017-05-23T18:09:17.977Z,7.04
2017-05-23T18:11:47.349Z,6.80
2017-05-23T18:14:16.232Z,6.52
2017-05-23T18:16:45.140Z,6.40
2017-05-23T18:19:14.476Z,6.45
2017-05-23T18:21:43.344Z,6.75
2017-05-23T18:24:12.231Z,6.27
2017-05-23T18:26:41.440Z,6.90
2017-05-23T18:29:10.324Z,6.68
2017-05-23T18:31:39.295Z,7.12
2017-05-23T18:34:08.496Z,7.28
2017-05-23T18:36:37.372Z,15.90
2017-05-23T18:39:06.242Z,7.35
2017-05-23T18:41:35.585Z,7.70
2017-05-23T18:44:04.575Z,7.68
2017-05-23T18:46:33.553Z,7.50
2017-05-23T18:49:02.756Z,8.23
2017-05-23T18:51:31.703Z,9.28
2017-05-23T18:54:00.595Z,8.80
2017-05-23T18:56:29.858Z,8.30
2017-05-23T18:58:58.740Z,7.78
2017-05-23T19:01:27.641Z,8.05
2017-05-23T19:03:56.806Z,7.95
2017-05-23T19:06:25.683Z,8.00
2017-05-23T19:08:54.559Z,8.32
2017-05-23T19:11:23.747Z,8.20
2017-05-23T19:13:52.701Z,10.06
2017-05-23T19:16:21.793Z,8.72
2017-05-23T19:18:51.009Z,8.70
2017-05-23T19:21:19.883Z,8.10
2017-05-23T19:23:48.750Z,8.80
2017-05-23T19:26:17.918Z,8.35
2017-05-23T19:28:46.777Z,8.60
2017-05-23T19:31:15.765Z,8.25
2017-05-23T19:33:44.951Z,9.05
2017-05-23T19:36:13.887Z,9.10
2017-05-23T19:38:42.798Z,9.00
2017-05-23T19:41:11.968Z,8.95
2017-05-23T19:43:40.947Z,9.46
2017-05-23T19:46:09.816Z,9.73
2017-05-23T19:48:39.020Z,8.73
2017-05-23T19:51:07.908Z,9.30
2017-05-23T19:53:36.862Z,9.67
2017-05-23T19:56:06.130Z,9.40
2017-05-23T19:58:34.999Z,9.80
2017-05-23T20:01:03.863Z,9.72
2017-05-23T20:03:33.084Z,10.00
2017-05-23T20:06:01.964Z,9.50
2017-05-23T20:08:30.820Z,9.20
2017-05-23T20:11:00.001Z,9.84
2017-05-23T20:13:28.891Z,9.32
2017-05-23T20:15:57.776Z,8.47
2017-05-23T20:18:27.041Z,8.82
2017-05-23T20:20:55.919Z,8.17
2017-05-23T20:23:24.783Z,7.70
2017-05-23T20:25:53.980Z,8.02
2017-05-23T20:28:22.835Z,7.30
2017-05-23T20:30:51.739Z,9.40
2017-05-23T20:33:20.900Z,6.60
2017-05-23T20:35:49.765Z,6.30
2017-05-23T20:38:18.632Z,7.30
2017-05-23T20:40:47.839Z,7.40
2017-05-23T20:43:16.687Z,7.63
2017-05-23T20:45:45.555Z,7.46
2017-05-23T20:48:14.775Z,8.10
2017-05-23T20:50:43.628Z,8.33
2017-05-23T20:53:12.532Z,8.72
2017-05-23T20:55:41.815Z,8.30
2017-05-23T20:58:10.673Z,8.35
2017-05-23T21:00:39.546Z,9.04
2017-05-23T21:03:08.751Z,8.57
2017-05-23T21:05:37.621Z,9.67
2017-05-23T21:08:06.490Z,9.34
2017-05-23T21:10:35.676Z,10.63
2017-05-23T21:13:04.551Z,9.20
2017-05-23T21:15:33.427Z,8.90
2017-05-23T21:18:02.597Z,10.12
2017-05-23T21:20:31.451Z,9.80
2017-05-23T21:23:00.352Z,9.57
2017-05-23T21:25:29.543Z,9.97
2017-05-23T21:27:58.416Z,9.85
2017-05-23T21:30:27.368Z,10.33
2017-05-23T21:32:56.571Z,10.68
2017-05-23T21:35:25.447Z,10.33
2017-05-23T21:37:54.334Z,12.92
2017-05-23T21:40:23.602Z,10.57
2017-05-23T21:42:52.482Z,11.10
2017-05-23T21:45:21.542Z,11.30
2017-05-23T21:47:50.750Z,11.08
2017-05-23T21:50:19.611Z,10.87
2017-05-23T21:52:48.487Z,11.50
2017-05-23T21:55:17.695Z,10.92
2017-05-23T21:57:46.587Z,11.52
2017-05-23T22:00:15.508Z,11.30
2017-05-23T22:02:44.713Z,11.98
2017-05-23T22:05:13.582Z,11.50
2017-05-23T22:07:42.456Z,12.04
2017-05-23T22:10:11.655Z,11.95
2017-05-23T22:12:40.524Z,12.83
2017-05-23T22:15:09.401Z,13.64
2017-05-23T22:17:38.680Z,19.22
2017-05-23T22:20:07.557Z,14.10
2017-05-23T22:22:36.509Z,14.12
2017-05-23T22:25:05.708Z,13.38
2017-05-23T22:27:34.582Z,13.40
2017-05-23T22:30:03.464Z,14.27
2017-05-23T22:32:32.637Z,15.33
2017-05-23T22:35:01.498Z,15.22
2017-05-23T22:37:30.363Z,14.80
2017-05-23T22:39:59.576Z,15.73
2017-05-23T22:42:28.440Z,15.53
2017-05-23T22:44:57.312Z,15.52
2017-05-23T22:47:26.508Z,14.93
2017-05-23T22:49:55.478Z,14.98
2017-05-23T22:52:24.357Z,16.00
2017-05-23T22:54:53.531Z,15.15
2017-05-23T22:57:22.396Z,15.97
2017-05-23T22:59:51.281Z,16.10
2017-05-23T23:02:20.475Z,15.80
2017-05-23T23:04:49.532Z,15.93
2017-05-23T23:07:18.390Z,16.30
2017-05-23T23:09:47.609Z,16.48
2017-05-23T23:12:16.580Z,16.95
2017-05-23T23:14:45.443Z,17.10
2017-05-23T23:17:14.637Z,17.32
2017-05-23T23:19:43.621Z,17.40
2017-05-23T23:22:12.578Z,18.25
2017-05-23T23:24:41.778Z,19.36
2017-05-23T23:27:10.755Z,19.63
2017-05-23T23:29:39.633Z,19.40
2017-05-23T23:32:08.816Z,19.98
2017-05-23T23:34:37.699Z,19.66
2017-05-23T23:37:06.659Z,20.25
2017-05-23T23:39:35.811Z,18.72
2017-05-23T23:42:04.714Z,18.68
2017-05-23T23:44:33.679Z,17.72
2017-05-23T23:47:02.848Z,17.10
2017-05-23T23:49:31.715Z,15.92
2017-05-23T23:52:00.581Z,14.22
2017-05-23T23:54:29.760Z,11.68
2017-05-23T23:56:58.679Z,10.24
2017-05-23T23:59:27.548Z,9.10
